Terminal Aerodrome Forecast
Issued by NWS

Home | Current Version | Previous Version | Text Only | Print | Product List | Glossary On
Versions: 1 2 3 4 5 6 7 8 9 10 11 12 13 14 15 16 17 18 19 20 21 22 23 24 25 26 27 28
000
FTUS42 KGSP 241740
TAFHKY
TAF
KHKY 241740Z 2418/2518 16007KT P6SM -SHRA SCT015 BKN035
     FM242000 17010KT P6SM OVC040
      TEMPO 2420/2424 4SM TSRA OVC025CB
     FM250000 18007KT P6SM VCTS BKN025CB
     FM250300 19004KT P6SM BKN015
     FM250800 25004KT 5SM BR BKN035
     FM251200 24005KT P6SM BKN020 PROB30 2512/2518 2SM -RA OVC017=

USA.gov is the U.S. government's official web portal to all federal, state and local government web resources and services.